sensor_id;sensor_type;location;lat;lon;timestamp;P1;durP1;ratioP1;P2;durP2;ratioP2
17566;SDS011;8901;52.088;5.084;2023-02-08T00:01:25;30.33;;;27.93;;
17566;SDS011;8901;52.088;5.084;2023-02-08T00:03:52;30.57;;;28.17;;
17566;SDS011;8901;52.088;5.084;2023-02-08T00:06:20;31.57;;;29.07;;
17566;SDS011;8901;52.088;5.084;2023-02-08T00:08:47;31.07;;;28.60;;
17566;SDS011;8901;52.088;5.084;2023-02-08T00:11:14;32.83;;;29.73;;
17566;SDS011;8901;52.088;5.084;2023-02-08T00:13:41;33.13;;;30.43;;
17566;SDS011;8901;52.088;5.084;2023-02-08T00:16:09;29.20;;;26.80;;
17566;SDS011;8901;52.088;5.084;2023-02-08T00:18:37;29.80;;;27.47;;
17566;SDS011;8901;52.088;5.084;2023-02-08T00:21:08;31.33;;;28.73;;
17566;SDS011;8901;52.088;5.084;2023-02-08T00:23:36;28.93;;;26.47;;
17566;SDS011;8901;52.088;5.084;2023-02-08T00:26:03;30.17;;;27.67;;
17566;SDS011;8901;52.088;5.084;2023-02-08T00:28:30;29.37;;;26.87;;
17566;SDS011;8901;52.088;5.084;2023-02-08T00:30:58;29.73;;;27.13;;
17566;SDS011;8901;52.088;5.084;2023-02-08T00:33:25;30.00;;;27.50;;
17566;SDS011;8901;52.088;5.084;2023-02-08T00:35:58;29.97;;;27.50;;
17566;SDS011;8901;52.088;5.084;2023-02-08T00:38:25;29.93;;;27.23;;
17566;SDS011;8901;52.088;5.084;2023-02-08T00:40:54;28.67;;;26.20;;
17566;SDS011;8901;52.088;5.084;2023-02-08T00:43:21;28.33;;;26.03;;
17566;SDS011;8901;52.088;5.084;2023-02-08T00:45:52;27.93;;;25.83;;
17566;SDS011;8901;52.088;5.084;2023-02-08T00:48:19;26.93;;;24.53;;
17566;SDS011;8901;52.088;5.084;2023-02-08T00:50:55;26.10;;;24.03;;
17566;SDS011;8901;52.088;5.084;2023-02-08T00:53:23;27.17;;;25.00;;
17566;SDS011;8901;52.088;5.084;2023-02-08T00:55:51;28.60;;;26.23;;
17566;SDS011;8901;52.088;5.084;2023-02-08T00:58:18;27.10;;;24.90;;
17566;SDS011;8901;52.088;5.084;2023-02-08T01:00:45;27.20;;;25.00;;
17566;SDS011;8901;52.088;5.084;2023-02-08T01:03:12;26.63;;;24.53;;
17566;SDS011;8901;52.088;5.084;2023-02-08T01:05:39;27.30;;;25.20;;
17566;SDS011;8901;52.088;5.084;2023-02-08T01:08:06;25.70;;;23.70;;
17566;SDS011;8901;52.088;5.084;2023-02-08T01:10:35;26.73;;;24.63;;
17566;SDS011;8901;52.088;5.084;2023-02-08T01:13:02;26.67;;;24.57;;
17566;SDS011;8901;52.088;5.084;2023-02-08T01:15:29;27.70;;;25.50;;
17566;SDS011;8901;52.088;5.084;2023-02-08T01:17:57;26.50;;;24.50;;
17566;SDS011;8901;52.088;5.084;2023-02-08T01:20:24;28.07;;;25.67;;
17566;SDS011;8901;52.088;5.084;2023-02-08T01:22:51;27.63;;;25.33;;
17566;SDS011;8901;52.088;5.084;2023-02-08T01:25:18;28.20;;;25.73;;
17566;SDS011;8901;52.088;5.084;2023-02-08T01:27:47;26.30;;;24.20;;
17566;SDS011;8901;52.088;5.084;2023-02-08T01:30:14;27.83;;;25.43;;
17566;SDS011;8901;52.088;5.084;2023-02-08T01:32:41;28.47;;;26.27;;
17566;SDS011;8901;52.088;5.084;2023-02-08T01:35:08;26.77;;;24.80;;
17566;SDS011;8901;52.088;5.084;2023-02-08T01:37:35;26.23;;;24.20;;
17566;SDS011;8901;52.088;5.084;2023-02-08T01:40:03;26.40;;;24.23;;
17566;SDS011;8901;52.088;5.084;2023-02-08T01:42:30;25.77;;;23.77;;
17566;SDS011;8901;52.088;5.084;2023-02-08T01:47:55;25.70;;;23.70;;
17566;SDS011;8901;52.088;5.084;2023-02-08T01:50:25;25.53;;;23.67;;
17566;SDS011;8901;52.088;5.084;2023-02-08T01:52:56;25.60;;;23.70;;
17566;SDS011;8901;52.088;5.084;2023-02-08T01:55:25;27.60;;;25.37;;
17566;SDS011;8901;52.088;5.084;2023-02-08T01:57:55;26.40;;;24.33;;
17566;SDS011;8901;52.088;5.084;2023-02-08T02:00:24;26.60;;;24.60;;
17566;SDS011;8901;52.088;5.084;2023-02-08T02:02:52;25.27;;;23.37;;
17566;SDS011;8901;52.088;5.084;2023-02-08T02:05:22;27.57;;;25.40;;
17566;SDS011;8901;52.088;5.084;2023-02-08T02:07:51;26.30;;;24.27;;
17566;SDS011;8901;52.088;5.084;2023-02-08T02:10:20;25.53;;;23.73;;
17566;SDS011;8901;52.088;5.084;2023-02-08T02:12:48;27.33;;;25.17;;
17566;SDS011;8901;52.088;5.084;2023-02-08T02:15:16;26.93;;;24.93;;
17566;SDS011;8901;52.088;5.084;2023-02-08T02:17:43;27.70;;;25.70;;
17566;SDS011;8901;52.088;5.084;2023-02-08T02:20:13;26.60;;;24.63;;
17566;SDS011;8901;52.088;5.084;2023-02-08T02:25:54;27.20;;;25.03;;
17566;SDS011;8901;52.088;5.084;2023-02-08T02:28:51;27.93;;;25.73;;
17566;SDS011;8901;52.088;5.084;2023-02-08T02:31:34;26.70;;;24.73;;
17566;SDS011;8901;52.088;5.084;2023-02-08T02:34:08;27.43;;;25.23;;
17566;SDS011;8901;52.088;5.084;2023-02-08T02:36:43;27.97;;;25.47;;
17566;SDS011;8901;52.088;5.084;2023-02-08T02:39:15;26.07;;;24.27;;
17566;SDS011;8901;52.088;5.084;2023-02-08T02:41:46;25.30;;;23.40;;
17566;SDS011;8901;52.088;5.084;2023-02-08T02:44:36;26.60;;;24.60;;
17566;SDS011;8901;52.088;5.084;2023-02-08T02:47:07;26.97;;;24.97;;
17566;SDS011;8901;52.088;5.084;2023-02-08T02:49:38;25.33;;;23.43;;
17566;SDS011;8901;52.088;5.084;2023-02-08T02:52:10;26.90;;;24.87;;
17566;SDS011;8901;52.088;5.084;2023-02-08T02:54:39;26.07;;;24.17;;
17566;SDS011;8901;52.088;5.084;2023-02-08T02:57:08;26.80;;;24.70;;
17566;SDS011;8901;52.088;5.084;2023-02-08T02:59:38;25.83;;;23.83;;
17566;SDS011;8901;52.088;5.084;2023-02-08T03:02:08;26.50;;;24.10;;
17566;SDS011;8901;52.088;5.084;2023-02-08T03:04:52;27.03;;;25.03;;
17566;SDS011;8901;52.088;5.084;2023-02-08T03:07:25;26.13;;;24.10;;
17566;SDS011;8901;52.088;5.084;2023-02-08T03:09:59;25.83;;;23.97;;
17566;SDS011;8901;52.088;5.084;2023-02-08T03:12:33;25.73;;;23.80;;
17566;SDS011;8901;52.088;5.084;2023-02-08T03:15:05;26.37;;;24.43;;
17566;SDS011;8901;52.088;5.084;2023-02-08T03:17:42;27.10;;;25.10;;
17566;SDS011;8901;52.088;5.084;2023-02-08T03:20:12;27.33;;;25.37;;
17566;SDS011;8901;52.088;5.084;2023-02-08T03:22:42;27.03;;;25.03;;
17566;SDS011;8901;52.088;5.084;2023-02-08T03:25:11;27.27;;;24.90;;
17566;SDS011;8901;52.088;5.084;2023-02-08T03:27:47;27.10;;;24.83;;
17566;SDS011;8901;52.088;5.084;2023-02-08T03:30:16;25.33;;;23.47;;
17566;SDS011;8901;52.088;5.084;2023-02-08T03:32:49;25.70;;;23.73;;
17566;SDS011;8901;52.088;5.084;2023-02-08T03:35:18;25.90;;;23.97;;
17566;SDS011;8901;52.088;5.084;2023-02-08T03:37:47;25.50;;;23.60;;
17566;SDS011;8901;52.088;5.084;2023-02-08T03:40:16;26.47;;;24.20;;
17566;SDS011;8901;52.088;5.084;2023-02-08T03:42:44;25.97;;;23.87;;
17566;SDS011;8901;52.088;5.084;2023-02-08T03:45:14;25.20;;;23.40;;
17566;SDS011;8901;52.088;5.084;2023-02-08T03:47:43;24.70;;;22.90;;
17566;SDS011;8901;52.088;5.084;2023-02-08T03:50:13;24.40;;;22.60;;
17566;SDS011;8901;52.088;5.084;2023-02-08T03:52:44;24.93;;;22.93;;
17566;SDS011;8901;52.088;5.084;2023-02-08T03:55:14;25.80;;;23.80;;
17566;SDS011;8901;52.088;5.084;2023-02-08T03:57:43;25.00;;;23.17;;
17566;SDS011;8901;52.088;5.084;2023-02-08T04:00:13;25.47;;;23.40;;
17566;SDS011;8901;52.088;5.084;2023-02-08T04:02:42;25.80;;;23.90;;
17566;SDS011;8901;52.088;5.084;2023-02-08T04:05:10;25.87;;;23.67;;
17566;SDS011;8901;52.088;5.084;2023-02-08T04:07:39;25.03;;;23.23;;
17566;SDS011;8901;52.088;5.084;2023-02-08T04:10:07;25.63;;;23.83;;
17566;SDS011;8901;52.088;5.084;2023-02-08T04:12:34;24.73;;;22.83;;
17566;SDS011;8901;52.088;5.084;2023-02-08T04:15:02;25.90;;;24.03;;
17566;SDS011;8901;52.088;5.084;2023-02-08T04:17:29;24.30;;;22.60;;
17566;SDS011;8901;52.088;5.084;2023-02-08T04:19:56;24.00;;;22.03;;
17566;SDS011;8901;52.088;5.084;2023-02-08T04:22:24;25.27;;;23.30;;
17566;SDS011;8901;52.088;5.084;2023-02-08T04:24:53;24.83;;;22.93;;
17566;SDS011;8901;52.088;5.084;2023-02-08T04:27:20;25.90;;;23.70;;
17566;SDS011;8901;52.088;5.084;2023-02-08T04:29:47;25.77;;;23.87;;
17566;SDS011;8901;52.088;5.084;2023-02-08T04:32:15;25.87;;;23.67;;
17566;SDS011;8901;52.088;5.084;2023-02-08T04:34:42;24.73;;;22.93;;
17566;SDS011;8901;52.088;5.084;2023-02-08T04:37:09;25.23;;;23.33;;
17566;SDS011;8901;52.088;5.084;2023-02-08T04:39:36;24.80;;;22.87;;
17566;SDS011;8901;52.088;5.084;2023-02-08T04:42:05;24.27;;;22.37;;
17566;SDS011;8901;52.088;5.084;2023-02-08T04:44:32;22.80;;;21.07;;
17566;SDS011;8901;52.088;5.084;2023-02-08T04:46:59;24.80;;;22.83;;
17566;SDS011;8901;52.088;5.084;2023-02-08T04:49:27;23.57;;;21.90;;
17566;SDS011;8901;52.088;5.084;2023-02-08T04:51:54;24.63;;;22.63;;
17566;SDS011;8901;52.088;5.084;2023-02-08T04:54:21;24.47;;;22.57;;
17566;SDS011;8901;52.088;5.084;2023-02-08T04:56:48;25.03;;;23.13;;
17566;SDS011;8901;52.088;5.084;2023-02-08T04:59:16;24.47;;;22.57;;
17566;SDS011;8901;52.088;5.084;2023-02-08T05:01:44;24.40;;;22.60;;
17566;SDS011;8901;52.088;5.084;2023-02-08T05:04:11;24.63;;;22.80;;
17566;SDS011;8901;52.088;5.084;2023-02-08T05:06:38;23.60;;;21.80;;
17566;SDS011;8901;52.088;5.084;2023-02-08T05:09:06;23.83;;;21.77;;
17566;SDS011;8901;52.088;5.084;2023-02-08T05:11:33;23.23;;;21.47;;
17566;SDS011;8901;52.088;5.084;2023-02-08T05:14:00;22.87;;;21.03;;
17566;SDS011;8901;52.088;5.084;2023-02-08T05:16:29;22.97;;;21.20;;
17566;SDS011;8901;52.088;5.084;2023-02-08T05:18:56;22.90;;;21.20;;
17566;SDS011;8901;52.088;5.084;2023-02-08T05:21:23;22.17;;;20.40;;
17566;SDS011;8901;52.088;5.084;2023-02-08T05:23:50;24.23;;;22.23;;
17566;SDS011;8901;52.088;5.084;2023-02-08T05:26:17;22.23;;;20.57;;
17566;SDS011;8901;52.088;5.084;2023-02-08T05:28:44;21.83;;;20.13;;
17566;SDS011;8901;52.088;5.084;2023-02-08T05:31:12;23.37;;;21.57;;
17566;SDS011;8901;52.088;5.084;2023-02-08T05:33:41;24.40;;;22.50;;
17566;SDS011;8901;52.088;5.084;2023-02-08T05:36:08;23.63;;;21.53;;
17566;SDS011;8901;52.088;5.084;2023-02-08T05:38:36;21.60;;;20.00;;
17566;SDS011;8901;52.088;5.084;2023-02-08T05:41:03;21.00;;;19.30;;
17566;SDS011;8901;52.088;5.084;2023-02-08T05:43:30;19.83;;;18.40;;
17566;SDS011;8901;52.088;5.084;2023-02-08T05:45:57;21.50;;;19.90;;
17566;SDS011;8901;52.088;5.084;2023-02-08T05:48:25;22.17;;;20.47;;
17566;SDS011;8901;52.088;5.084;2023-02-08T05:50:53;21.23;;;19.63;;
17566;SDS011;8901;52.088;5.084;2023-02-08T05:53:20;22.90;;;21.07;;
17566;SDS011;8901;52.088;5.084;2023-02-08T05:55:48;22.77;;;20.97;;
17566;SDS011;8901;52.088;5.084;2023-02-08T05:58:15;22.77;;;20.80;;
17566;SDS011;8901;52.088;5.084;2023-02-08T06:00:42;22.03;;;20.13;;
17566;SDS011;8901;52.088;5.084;2023-02-08T06:03:11;23.10;;;21.20;;
17566;SDS011;8901;52.088;5.084;2023-02-08T06:05:38;22.00;;;20.13;;
17566;SDS011;8901;52.088;5.084;2023-02-08T06:08:07;21.80;;;19.77;;
17566;SDS011;8901;52.088;5.084;2023-02-08T06:10:34;19.97;;;18.47;;
17566;SDS011;8901;52.088;5.084;2023-02-08T06:13:02;21.53;;;19.93;;
17566;SDS011;8901;52.088;5.084;2023-02-08T06:15:29;21.17;;;19.57;;
17566;SDS011;8901;52.088;5.084;2023-02-08T06:17:56;20.80;;;19.00;;
17566;SDS011;8901;52.088;5.084;2023-02-08T06:20:24;22.00;;;20.17;;
17566;SDS011;8901;52.088;5.084;2023-02-08T06:22:51;22.27;;;20.67;;
17566;SDS011;8901;52.088;5.084;2023-02-08T06:25:19;21.43;;;19.80;;
17566;SDS011;8901;52.088;5.084;2023-02-08T06:27:46;22.10;;;20.23;;
17566;SDS011;8901;52.088;5.084;2023-02-08T06:30:13;22.37;;;20.60;;
17566;SDS011;8901;52.088;5.084;2023-02-08T06:32:41;21.67;;;19.87;;
17566;SDS011;8901;52.088;5.084;2023-02-08T06:35:08;23.63;;;21.90;;
17566;SDS011;8901;52.088;5.084;2023-02-08T06:37:35;25.63;;;23.50;;
17566;SDS011;8901;52.088;5.084;2023-02-08T06:40:02;25.57;;;23.67;;
17566;SDS011;8901;52.088;5.084;2023-02-08T06:42:31;25.57;;;23.37;;
17566;SDS011;8901;52.088;5.084;2023-02-08T06:44:58;25.43;;;23.53;;
17566;SDS011;8901;52.088;5.084;2023-02-08T06:49:53;23.57;;;21.77;;
17566;SDS011;8901;52.088;5.084;2023-02-08T06:52:20;24.57;;;22.77;;
17566;SDS011;8901;52.088;5.084;2023-02-08T06:54:47;24.67;;;22.90;;
17566;SDS011;8901;52.088;5.084;2023-02-08T06:57:14;25.17;;;23.27;;
17566;SDS011;8901;52.088;5.084;2023-02-08T06:59:44;25.50;;;23.50;;
17566;SDS011;8901;52.088;5.084;2023-02-08T07:02:11;24.83;;;22.93;;
17566;SDS011;8901;52.088;5.084;2023-02-08T07:04:39;26.23;;;24.20;;
17566;SDS011;8901;52.088;5.084;2023-02-08T07:07:06;24.70;;;22.90;;
17566;SDS011;8901;52.088;5.084;2023-02-08T07:09:34;25.90;;;23.90;;
17566;SDS011;8901;52.088;5.084;2023-02-08T07:12:01;24.43;;;22.53;;
17566;SDS011;8901;52.088;5.084;2023-02-08T07:14:29;24.97;;;22.87;;
17566;SDS011;8901;52.088;5.084;2023-02-08T07:16:58;25.07;;;23.17;;
17566;SDS011;8901;52.088;5.084;2023-02-08T07:19:25;24.17;;;22.17;;
17566;SDS011;8901;52.088;5.084;2023-02-08T07:21:53;23.60;;;21.70;;
17566;SDS011;8901;52.088;5.084;2023-02-08T07:24:20;23.77;;;21.97;;
17566;SDS011;8901;52.088;5.084;2023-02-08T07:26:48;24.03;;;22.03;;
17566;SDS011;8901;52.088;5.084;2023-02-08T07:29:15;24.40;;;22.10;;
17566;SDS011;8901;52.088;5.084;2023-02-08T07:31:42;23.97;;;21.87;;
17566;SDS011;8901;52.088;5.084;2023-02-08T07:34:11;23.30;;;21.10;;
17566;SDS011;8901;52.088;5.084;2023-02-08T07:36:38;22.37;;;20.27;;
17566;SDS011;8901;52.088;5.084;2023-02-08T07:39:05;23.63;;;21.53;;
17566;SDS011;8901;52.088;5.084;2023-02-08T07:41:32;22.57;;;20.70;;
17566;SDS011;8901;52.088;5.084;2023-02-08T07:43:59;23.00;;;21.03;;
17566;SDS011;8901;52.088;5.084;2023-02-08T07:46:27;23.97;;;22.07;;
17566;SDS011;8901;52.088;5.084;2023-02-08T07:48:54;22.47;;;20.67;;
17566;SDS011;8901;52.088;5.084;2023-02-08T07:51:22;23.17;;;21.23;;
17566;SDS011;8901;52.088;5.084;2023-02-08T07:53:50;25.03;;;23.03;;
17566;SDS011;8901;52.088;5.084;2023-02-08T07:56:17;24.57;;;22.67;;
17566;SDS011;8901;52.088;5.084;2023-02-08T07:58:44;24.57;;;22.57;;
17566;SDS011;8901;52.088;5.084;2023-02-08T08:01:11;24.73;;;22.73;;
17566;SDS011;8901;52.088;5.084;2023-02-08T08:03:39;24.40;;;22.30;;
17566;SDS011;8901;52.088;5.084;2023-02-08T08:06:06;23.60;;;21.90;;
17566;SDS011;8901;52.088;5.084;2023-02-08T08:08:34;24.63;;;22.73;;
17566;SDS011;8901;52.088;5.084;2023-02-08T08:11:02;25.13;;;23.23;;
17566;SDS011;8901;52.088;5.084;2023-02-08T08:13:29;25.23;;;23.23;;
17566;SDS011;8901;52.088;5.084;2023-02-08T08:15:56;26.63;;;24.53;;
17566;SDS011;8901;52.088;5.084;2023-02-08T08:18:23;25.53;;;23.60;;
17566;SDS011;8901;52.088;5.084;2023-02-08T08:20:50;25.30;;;23.10;;
17566;SDS011;8901;52.088;5.084;2023-02-08T08:23:17;26.03;;;23.73;;
17566;SDS011;8901;52.088;5.084;2023-02-08T08:25:46;26.93;;;24.30;;
17566;SDS011;8901;52.088;5.084;2023-02-08T08:28:13;25.23;;;23.30;;
17566;SDS011;8901;52.088;5.084;2023-02-08T08:30:41;25.70;;;23.70;;
17566;SDS011;8901;52.088;5.084;2023-02-08T08:33:09;24.50;;;22.70;;
17566;SDS011;8901;52.088;5.084;2023-02-08T08:35:38;26.67;;;24.67;;
17566;SDS011;8901;52.088;5.084;2023-02-08T08:38:05;24.87;;;22.87;;
17566;SDS011;8901;52.088;5.084;2023-02-08T08:40:32;26.03;;;23.90;;
17566;SDS011;8901;52.088;5.084;2023-02-08T08:43:00;26.47;;;24.37;;
17566;SDS011;8901;52.088;5.084;2023-02-08T08:45:28;26.20;;;23.97;;
17566;SDS011;8901;52.088;5.084;2023-02-08T08:47:55;26.80;;;24.77;;
17566;SDS011;8901;52.088;5.084;2023-02-08T08:50:22;25.80;;;23.90;;
17566;SDS011;8901;52.088;5.084;2023-02-08T08:52:49;25.63;;;23.80;;
17566;SDS011;8901;52.088;5.084;2023-02-08T08:55:16;26.57;;;24.67;;
17566;SDS011;8901;52.088;5.084;2023-02-08T08:57:44;27.47;;;25.17;;
17566;SDS011;8901;52.088;5.084;2023-02-08T09:00:13;25.53;;;23.53;;
17566;SDS011;8901;52.088;5.084;2023-02-08T09:02:40;25.80;;;23.80;;
17566;SDS011;8901;52.088;5.084;2023-02-08T09:05:07;25.60;;;23.53;;
17566;SDS011;8901;52.088;5.084;2023-02-08T09:07:34;25.43;;;23.20;;
17566;SDS011;8901;52.088;5.084;2023-02-08T09:10:02;25.80;;;23.70;;
17566;SDS011;8901;52.088;5.084;2023-02-08T09:12:29;27.97;;;25.40;;
17566;SDS011;8901;52.088;5.084;2023-02-08T09:14:56;30.63;;;24.97;;
17566;SDS011;8901;52.088;5.084;2023-02-08T09:17:25;26.00;;;24.00;;
17566;SDS011;8901;52.088;5.084;2023-02-08T09:19:52;26.37;;;24.17;;
17566;SDS011;8901;52.088;5.084;2023-02-08T09:22:19;27.63;;;25.53;;
17566;SDS011;8901;52.088;5.084;2023-02-08T09:24:46;25.37;;;23.40;;
17566;SDS011;8901;52.088;5.084;2023-02-08T09:27:13;25.67;;;23.60;;
17566;SDS011;8901;52.088;5.084;2023-02-08T09:29:43;24.83;;;22.93;;
17566;SDS011;8901;52.088;5.084;2023-02-08T09:32:10;25.63;;;23.73;;
17566;SDS011;8901;52.088;5.084;2023-02-08T09:34:39;25.80;;;23.90;;
17566;SDS011;8901;52.088;5.084;2023-02-08T09:37:06;25.83;;;23.60;;
17566;SDS011;8901;52.088;5.084;2023-02-08T09:39:33;25.80;;;23.70;;
17566;SDS011;8901;52.088;5.084;2023-02-08T09:42:24;28.00;;;25.57;;
17566;SDS011;8901;52.088;5.084;2023-02-08T09:47:35;24.73;;;22.93;;
17566;SDS011;8901;52.088;5.084;2023-02-08T09:50:08;26.23;;;24.13;;
17566;SDS011;8901;52.088;5.084;2023-02-08T09:52:37;27.03;;;24.87;;
17566;SDS011;8901;52.088;5.084;2023-02-08T09:55:09;25.80;;;23.90;;
17566;SDS011;8901;52.088;5.084;2023-02-08T09:57:39;25.30;;;23.40;;
17566;SDS011;8901;52.088;5.084;2023-02-08T10:00:09;25.27;;;23.27;;
17566;SDS011;8901;52.088;5.084;2023-02-08T10:02:39;27.83;;;25.73;;
17566;SDS011;8901;52.088;5.084;2023-02-08T10:05:10;26.13;;;23.93;;
17566;SDS011;8901;52.088;5.084;2023-02-08T10:07:38;26.07;;;23.93;;
17566;SDS011;8901;52.088;5.084;2023-02-08T10:10:06;25.20;;;23.30;;
17566;SDS011;8901;52.088;5.084;2023-02-08T10:12:39;25.83;;;23.87;;
17566;SDS011;8901;52.088;5.084;2023-02-08T10:15:13;25.13;;;23.23;;
17566;SDS011;8901;52.088;5.084;2023-02-08T10:18:05;25.77;;;23.70;;
17566;SDS011;8901;52.088;5.084;2023-02-08T10:20:42;26.10;;;24.10;;
17566;SDS011;8901;52.088;5.084;2023-02-08T10:23:16;25.23;;;23.43;;
17566;SDS011;8901;52.088;5.084;2023-02-08T10:25:50;25.37;;;23.57;;
17566;SDS011;8901;52.088;5.084;2023-02-08T10:28:28;26.20;;;24.13;;
17566;SDS011;8901;52.088;5.084;2023-02-08T10:31:00;32.97;;;30.03;;
17566;SDS011;8901;52.088;5.084;2023-02-08T10:33:30;25.90;;;23.93;;
17566;SDS011;8901;52.088;5.084;2023-02-08T10:35:59;28.20;;;25.93;;
17566;SDS011;8901;52.088;5.084;2023-02-08T10:38:27;26.53;;;24.47;;
17566;SDS011;8901;52.088;5.084;2023-02-08T10:40:56;28.80;;;26.57;;
17566;SDS011;8901;52.088;5.084;2023-02-08T10:43:27;28.10;;;25.60;;
17566;SDS011;8901;52.088;5.084;2023-02-08T10:46:00;26.83;;;24.73;;
17566;SDS011;8901;52.088;5.084;2023-02-08T10:48:31;27.33;;;25.07;;
17566;SDS011;8901;52.088;5.084;2023-02-08T10:51:02;26.57;;;24.63;;
17566;SDS011;8901;52.088;5.084;2023-02-08T10:53:29;25.43;;;23.63;;
17566;SDS011;8901;52.088;5.084;2023-02-08T10:55:57;27.47;;;25.40;;
17566;SDS011;8901;52.088;5.084;2023-02-08T10:58:24;27.83;;;25.83;;
17566;SDS011;8901;52.088;5.084;2023-02-08T11:00:51;27.67;;;25.73;;
17566;SDS011;8901;52.088;5.084;2023-02-08T11:03:22;29.03;;;26.97;;
17566;SDS011;8901;52.088;5.084;2023-02-08T11:05:49;27.97;;;25.87;;
17566;SDS011;8901;52.088;5.084;2023-02-08T11:08:18;27.53;;;25.43;;
17566;SDS011;8901;52.088;5.084;2023-02-08T11:10:54;26.80;;;25.00;;
17566;SDS011;8901;52.088;5.084;2023-02-08T11:13:22;27.03;;;24.97;;
17566;SDS011;8901;52.088;5.084;2023-02-08T11:15:50;26.83;;;24.73;;
17566;SDS011;8901;52.088;5.084;2023-02-08T11:18:19;27.67;;;25.53;;
17566;SDS011;8901;52.088;5.084;2023-02-08T11:20:48;27.33;;;25.10;;
17566;SDS011;8901;52.088;5.084;2023-02-08T11:23:21;26.00;;;23.93;;
17566;SDS011;8901;52.088;5.084;2023-02-08T11:25:50;26.67;;;24.30;;
17566;SDS011;8901;52.088;5.084;2023-02-08T11:28:22;26.20;;;24.20;;
17566;SDS011;8901;52.088;5.084;2023-02-08T11:30:59;25.73;;;23.87;;
17566;SDS011;8901;52.088;5.084;2023-02-08T11:33:27;26.73;;;24.77;;
17566;SDS011;8901;52.088;5.084;2023-02-08T11:35:56;27.63;;;25.73;;
17566;SDS011;8901;52.088;5.084;2023-02-08T11:38:25;27.53;;;25.27;;
17566;SDS011;8901;52.088;5.084;2023-02-08T11:40:53;27.90;;;25.77;;
17566;SDS011;8901;52.088;5.084;2023-02-08T11:43:22;27.23;;;25.20;;
17566;SDS011;8901;52.088;5.084;2023-02-08T11:45:50;27.77;;;25.27;;
17566;SDS011;8901;52.088;5.084;2023-02-08T11:48:19;25.30;;;23.50;;
17566;SDS011;8901;52.088;5.084;2023-02-08T11:50:51;25.43;;;23.63;;
17566;SDS011;8901;52.088;5.084;2023-02-08T11:53:20;27.17;;;25.13;;
17566;SDS011;8901;52.088;5.084;2023-02-08T11:56:01;26.87;;;24.97;;
17566;SDS011;8901;52.088;5.084;2023-02-08T11:58:28;25.23;;;23.47;;
17566;SDS011;8901;52.088;5.084;2023-02-08T12:00:56;25.40;;;23.47;;
17566;SDS011;8901;52.088;5.084;2023-02-08T12:03:25;26.97;;;24.63;;
17566;SDS011;8901;52.088;5.084;2023-02-08T12:05:55;25.83;;;24.07;;
17566;SDS011;8901;52.088;5.084;2023-02-08T12:08:26;25.17;;;23.27;;
17566;SDS011;8901;52.088;5.084;2023-02-08T12:11:08;26.07;;;24.03;;
17566;SDS011;8901;52.088;5.084;2023-02-08T12:13:56;25.27;;;23.33;;
17566;SDS011;8901;52.088;5.084;2023-02-08T12:16:32;26.00;;;24.00;;
17566;SDS011;8901;52.088;5.084;2023-02-08T12:21:44;26.00;;;24.00;;
17566;SDS011;8901;52.088;5.084;2023-02-08T12:24:13;27.03;;;24.57;;
17566;SDS011;8901;52.088;5.084;2023-02-08T12:26:48;26.07;;;23.83;;
17566;SDS011;8901;52.088;5.084;2023-02-08T12:29:21;26.37;;;24.47;;
17566;SDS011;8901;52.088;5.084;2023-02-08T12:31:59;26.03;;;23.97;;
17566;SDS011;8901;52.088;5.084;2023-02-08T12:34:32;26.93;;;24.03;;
17566;SDS011;8901;52.088;5.084;2023-02-08T12:37:06;28.27;;;25.53;;
17566;SDS011;8901;52.088;5.084;2023-02-08T12:39:52;26.77;;;24.20;;
17566;SDS011;8901;52.088;5.084;2023-02-08T12:42:45;25.70;;;23.60;;
17566;SDS011;8901;52.088;5.084;2023-02-08T12:45:25;26.50;;;24.40;;
17566;SDS011;8901;52.088;5.084;2023-02-08T12:47:58;26.70;;;24.50;;
17566;SDS011;8901;52.088;5.084;2023-02-08T12:50:31;26.17;;;24.17;;
17566;SDS011;8901;52.088;5.084;2023-02-08T12:53:00;26.60;;;24.53;;
17566;SDS011;8901;52.088;5.084;2023-02-08T12:55:28;25.33;;;23.53;;
17566;SDS011;8901;52.088;5.084;2023-02-08T12:57:58;24.67;;;22.77;;
17566;SDS011;8901;52.088;5.084;2023-02-08T13:00:27;25.43;;;23.50;;
17566;SDS011;8901;52.088;5.084;2023-02-08T13:02:57;28.57;;;26.33;;
17566;SDS011;8901;52.088;5.084;2023-02-08T13:05:27;31.63;;;28.93;;
17566;SDS011;8901;52.088;5.084;2023-02-08T13:07:58;38.37;;;34.43;;
17566;SDS011;8901;52.088;5.084;2023-02-08T13:10:30;26.53;;;24.33;;
17566;SDS011;8901;52.088;5.084;2023-02-08T13:13:03;26.67;;;24.67;;
17566;SDS011;8901;52.088;5.084;2023-02-08T13:15:35;36.63;;;33.00;;
17566;SDS011;8901;52.088;5.084;2023-02-08T13:18:08;37.67;;;34.00;;
17566;SDS011;8901;52.088;5.084;2023-02-08T13:20:39;35.10;;;31.63;;
17566;SDS011;8901;52.088;5.084;2023-02-08T13:23:09;26.03;;;24.23;;
17566;SDS011;8901;52.088;5.084;2023-02-08T13:25:41;36.20;;;32.67;;
17566;SDS011;8901;52.088;5.084;2023-02-08T13:28:17;27.97;;;25.57;;
17566;SDS011;8901;52.088;5.084;2023-02-08T13:30:44;41.87;;;37.07;;
17566;SDS011;8901;52.088;5.084;2023-02-08T13:33:13;41.13;;;36.93;;
17566;SDS011;8901;52.088;5.084;2023-02-08T13:35:42;36.73;;;33.00;;
17566;SDS011;8901;52.088;5.084;2023-02-08T13:38:17;39.67;;;33.20;;
17566;SDS011;8901;52.088;5.084;2023-02-08T13:40:46;25.67;;;23.87;;
17566;SDS011;8901;52.088;5.084;2023-02-08T13:43:22;29.83;;;27.37;;
17566;SDS011;8901;52.088;5.084;2023-02-08T13:45:51;31.90;;;29.17;;
17566;SDS011;8901;52.088;5.084;2023-02-08T13:48:20;29.97;;;27.37;;
17566;SDS011;8901;52.088;5.084;2023-02-08T13:50:47;31.53;;;28.60;;
17566;SDS011;8901;52.088;5.084;2023-02-08T13:53:16;35.27;;;31.90;;
17566;SDS011;8901;52.088;5.084;2023-02-08T14:01:33;32.00;;;29.13;;
17566;SDS011;8901;52.088;5.084;2023-02-08T14:06:44;28.80;;;26.47;;
17566;SDS011;8901;52.088;5.084;2023-02-08T14:09:15;29.80;;;27.20;;
17566;SDS011;8901;52.088;5.084;2023-02-08T14:11:45;31.95;;;29.20;;
17566;SDS011;8901;52.088;5.084;2023-02-08T14:14:14;30.20;;;27.23;;
17566;SDS011;8901;52.088;5.084;2023-02-08T14:16:44;32.30;;;27.07;;
17566;SDS011;8901;52.088;5.084;2023-02-08T14:19:22;26.97;;;24.97;;
17566;SDS011;8901;52.088;5.084;2023-02-08T14:21:58;31.73;;;28.67;;
17566;SDS011;8901;52.088;5.084;2023-02-08T14:24:27;27.70;;;25.23;;
17566;SDS011;8901;52.088;5.084;2023-02-08T14:27:04;29.00;;;26.60;;
17566;SDS011;8901;52.088;5.084;2023-02-08T14:29:32;29.90;;;27.07;;
17566;SDS011;8901;52.088;5.084;2023-02-08T14:32:01;28.90;;;26.37;;
17566;SDS011;8901;52.088;5.084;2023-02-08T14:34:30;27.63;;;25.47;;
17566;SDS011;8901;52.088;5.084;2023-02-08T14:36:59;27.17;;;24.97;;
17566;SDS011;8901;52.088;5.084;2023-02-08T14:39:27;27.57;;;25.10;;
17566;SDS011;8901;52.088;5.084;2023-02-08T14:41:57;27.17;;;24.83;;
17566;SDS011;8901;52.088;5.084;2023-02-08T14:50:10;27.57;;;25.20;;
17566;SDS011;8901;52.088;5.084;2023-02-08T14:52:39;25.13;;;23.30;;
17566;SDS011;8901;52.088;5.084;2023-02-08T14:55:12;25.60;;;23.70;;
17566;SDS011;8901;52.088;5.084;2023-02-08T14:57:42;24.73;;;22.90;;
17566;SDS011;8901;52.088;5.084;2023-02-08T15:00:15;25.00;;;23.30;;
17566;SDS011;8901;52.088;5.084;2023-02-08T15:02:43;25.17;;;23.33;;
17566;SDS011;8901;52.088;5.084;2023-02-08T15:05:19;26.07;;;23.93;;
17566;SDS011;8901;52.088;5.084;2023-02-08T15:07:47;23.90;;;22.20;;
17566;SDS011;8901;52.088;5.084;2023-02-08T15:10:16;23.87;;;22.17;;
17566;SDS011;8901;52.088;5.084;2023-02-08T15:12:45;23.50;;;21.87;;
17566;SDS011;8901;52.088;5.084;2023-02-08T15:15:21;23.70;;;22.00;;